createdAt,value
2017-01-23T00:00:49.159Z,1023.95
2017-01-23T00:01:57.815Z,1023.95
2017-01-23T00:03:06.470Z,1023.94
2017-01-23T00:04:15.115Z,1023.98
2017-01-23T00:05:23.767Z,1023.96
2017-01-23T00:06:32.432Z,1023.9
2017-01-23T00:07:41.083Z,1023.92
2017-01-23T00:08:49.738Z,1024.01
2017-01-23T00:09:58.384Z,1023.98
2017-01-23T00:11:07.032Z,1023.98
2017-01-23T00:12:15.677Z,1023.98
2017-01-23T00:13:24.344Z,1023.91
2017-01-23T00:14:32.995Z,1023.98
2017-01-23T00:15:41.648Z,1023.89
2017-01-23T00:16:50.294Z,1023.88
2017-01-23T00:17:58.942Z,1023.9
2017-01-23T00:19:07.625Z,1023.91
2017-01-23T00:20:16.273Z,1023.89
2017-01-23T00:21:24.926Z,1023.88
2017-01-23T00:22:33.569Z,1023.91
2017-01-23T00:23:42.217Z,1023.94
2017-01-23T00:24:50.867Z,1023.91
2017-01-23T00:25:59.514Z,1023.9
2017-01-23T00:27:08.165Z,1023.93
2017-01-23T00:28:16.807Z,1023.94
2017-01-23T00:29:25.449Z,1023.96
2017-01-23T00:30:34.100Z,1023.91
2017-01-23T00:31:42.744Z,1023.91
2017-01-23T00:32:51.396Z,1023.94
2017-01-23T00:34:00.049Z,1023.91
2017-01-23T00:35:08.701Z,1023.88
2017-01-23T00:36:17.349Z,1023.86
2017-01-23T00:37:25.993Z,1023.81
2017-01-23T00:38:34.647Z,1023.77
2017-01-23T00:39:43.296Z,1023.8
2017-01-23T00:40:51.943Z,1023.82
2017-01-23T00:42:00.585Z,1023.82
2017-01-23T00:43:09.234Z,1023.84
2017-01-23T00:44:17.882Z,1023.84
2017-01-23T00:45:26.530Z,1023.85
2017-01-23T00:46:35.175Z,1023.84
2017-01-23T00:47:43.815Z,1023.82
2017-01-23T00:48:52.485Z,1023.79
2017-01-23T00:50:01.131Z,1023.82
2017-01-23T00:51:09.787Z,1023.84
2017-01-23T00:52:18.428Z,1023.79
2017-01-23T00:53:27.088Z,1023.83
2017-01-23T00:54:35.734Z,1023.85
2017-01-23T00:55:44.374Z,1023.83
2017-01-23T00:56:53.018Z,1023.84
2017-01-23T00:58:02.051Z,1023.84
2017-01-23T00:59:10.698Z,1023.79
2017-01-23T01:00:19.343Z,1023.86
2017-01-23T01:01:27.990Z,1023.8
2017-01-23T01:02:36.639Z,1023.86
2017-01-23T01:03:45.286Z,1023.85
2017-01-23T01:04:53.936Z,1023.85
2017-01-23T01:06:02.617Z,1023.86
2017-01-23T01:07:11.263Z,1023.87
2017-01-23T01:08:19.917Z,1023.82
2017-01-23T01:09:28.562Z,1023.89
2017-01-23T01:10:37.208Z,1023.84
2017-01-23T01:11:45.885Z,1023.84
2017-01-23T01:12:54.560Z,1023.81
2017-01-23T01:14:03.202Z,1023.86
2017-01-23T01:15:11.854Z,1023.87
2017-01-23T01:16:20.504Z,1023.78
2017-01-23T01:17:29.146Z,1023.84
2017-01-23T01:18:37.795Z,1023.87
2017-01-23T01:19:46.441Z,1023.77
2017-01-23T01:20:55.090Z,1023.82
2017-01-23T01:22:03.737Z,1023.82
2017-01-23T01:23:12.397Z,1023.82
2017-01-23T01:24:21.037Z,1023.79
2017-01-23T01:25:29.684Z,1023.78
2017-01-23T01:26:38.324Z,1023.81
2017-01-23T01:27:46.971Z,1023.87
2017-01-23T01:28:55.616Z,1023.83
2017-01-23T01:30:04.264Z,1023.85
2017-01-23T01:31:12.912Z,1023.89
2017-01-23T01:32:21.557Z,1023.93
2017-01-23T01:33:30.202Z,1023.92
2017-01-23T01:34:38.855Z,1023.89
2017-01-23T01:35:47.499Z,1023.91
2017-01-23T01:36:56.143Z,1024
2017-01-23T01:38:05.179Z,1024.01
2017-01-23T01:39:13.827Z,1023.94
2017-01-23T01:40:22.476Z,1024.03
2017-01-23T01:41:31.123Z,1024.03
2017-01-23T01:42:39.768Z,1024.04
2017-01-23T01:43:48.415Z,1024.04
2017-01-23T01:44:57.061Z,1024.02
2017-01-23T01:46:05.710Z,1024.02
2017-01-23T01:47:14.354Z,1024.1
2017-01-23T01:48:23.033Z,1024.07
2017-01-23T01:49:31.706Z,1024.02
2017-01-23T01:50:40.355Z,1024.11
2017-01-23T01:51:49.006Z,1024.08
2017-01-23T01:52:57.654Z,1024.1
2017-01-23T01:54:06.331Z,1024.12
2017-01-23T01:55:14.978Z,1024.09
2017-01-23T01:56:23.657Z,1024.08
2017-01-23T01:57:32.306Z,1024.13
2017-01-23T01:58:40.951Z,1024.13
2017-01-23T01:59:49.977Z,1024.15
2017-01-23T02:00:58.649Z,1024.14
2017-01-23T02:02:07.300Z,1024.16
2017-01-23T02:03:15.945Z,1024.15
2017-01-23T02:04:24.593Z,1024.13
2017-01-23T02:05:33.240Z,1024.14
2017-01-23T02:06:41.880Z,1024.15
2017-01-23T02:07:50.532Z,1024.14
2017-01-23T02:08:59.182Z,1024.15
2017-01-23T02:10:07.835Z,1024.16
2017-01-23T02:11:16.479Z,1024.18
2017-01-23T02:12:25.120Z,1024.18
2017-01-23T02:13:33.770Z,1024.17
2017-01-23T02:14:42.437Z,1024.13
2017-01-23T02:15:51.081Z,1024.11
2017-01-23T02:16:59.766Z,1024.13
2017-01-23T02:18:08.413Z,1024.12
2017-01-23T02:19:17.061Z,1024.12
2017-01-23T02:20:25.712Z,1024.11
2017-01-23T02:21:34.361Z,1024.1
2017-01-23T02:22:43.005Z,1024.05
2017-01-23T02:23:51.655Z,1024.12
2017-01-23T02:25:00.303Z,1024
2017-01-23T02:26:08.948Z,1024
2017-01-23T02:27:17.596Z,1023.99
2017-01-23T02:28:26.631Z,1024
2017-01-23T02:29:35.273Z,1023.99
2017-01-23T02:30:43.917Z,1024.03
2017-01-23T02:31:52.600Z,1023.95
2017-01-23T02:33:01.254Z,1024.04
2017-01-23T02:34:09.903Z,1024.02
2017-01-23T02:35:18.548Z,1024.05
2017-01-23T02:36:27.202Z,1024.02
2017-01-23T02:37:35.846Z,1023.94
2017-01-23T02:38:44.497Z,1023.89
2017-01-23T02:39:53.140Z,1023.93
2017-01-23T02:41:01.788Z,1023.95
2017-01-23T02:42:10.434Z,1023.91
2017-01-23T02:43:19.078Z,1023.91
2017-01-23T02:44:28.118Z,1023.88
2017-01-23T02:45:36.769Z,1023.86
2017-01-23T02:46:45.418Z,1023.86
2017-01-23T02:47:54.071Z,1023.82
2017-01-23T02:49:02.751Z,1023.79
2017-01-23T02:50:11.397Z,1023.78
2017-01-23T02:51:20.043Z,1023.85
2017-01-23T02:52:28.692Z,1023.88
2017-01-23T02:53:37.335Z,1023.84
2017-01-23T02:54:45.986Z,1023.84
2017-01-23T02:55:54.631Z,1023.84
2017-01-23T02:57:03.281Z,1023.88
2017-01-23T02:58:11.922Z,1023.83
2017-01-23T02:59:20.570Z,1023.78
2017-01-23T03:00:29.218Z,1023.82
2017-01-23T03:01:37.862Z,1023.81
2017-01-23T03:02:46.507Z,1023.75
2017-01-23T03:03:55.164Z,1023.73
2017-01-23T03:05:03.817Z,1023.7
2017-01-23T03:06:12.473Z,1023.74
2017-01-23T03:07:21.119Z,1023.76
2017-01-23T03:08:29.799Z,1023.71
2017-01-23T03:09:38.455Z,1023.71
2017-01-23T03:10:47.109Z,1023.82
2017-01-23T03:11:55.755Z,1023.79
2017-01-23T03:13:04.407Z,1023.73
2017-01-23T03:14:13.061Z,1023.74
2017-01-23T03:15:21.704Z,1023.7
2017-01-23T03:16:30.349Z,1023.7
2017-01-23T03:17:38.994Z,1023.72
2017-01-23T03:18:47.644Z,1023.66
2017-01-23T03:19:56.289Z,1023.7
2017-01-23T03:21:04.964Z,1023.66
2017-01-23T03:22:13.605Z,1023.66
2017-01-23T03:23:22.254Z,1023.67
2017-01-23T03:24:30.898Z,1023.65
2017-01-23T03:25:39.546Z,1023.67
2017-01-23T03:26:48.192Z,1023.63
2017-01-23T03:27:56.853Z,1023.6
2017-01-23T03:29:05.501Z,1023.59
2017-01-23T03:30:14.149Z,1023.66
2017-01-23T03:31:22.796Z,1023.64
2017-01-23T03:32:31.437Z,1023.65
2017-01-23T03:33:40.082Z,1023.66
2017-01-23T03:34:48.731Z,1023.62
2017-01-23T03:35:57.373Z,1023.6
2017-01-23T03:37:06.047Z,1023.62
2017-01-23T03:38:14.697Z,1023.57
2017-01-23T03:39:23.343Z,1023.64
2017-01-23T03:40:31.989Z,1023.69
2017-01-23T03:41:40.635Z,1023.66
2017-01-23T03:42:49.284Z,1023.66
2017-01-23T03:43:57.949Z,1023.66
2017-01-23T03:45:06.597Z,1023.67
2017-01-23T03:46:15.251Z,1023.69
2017-01-23T03:47:23.907Z,1023.68
2017-01-23T03:48:32.557Z,1023.67
2017-01-23T03:49:41.201Z,1023.64
2017-01-23T03:50:49.848Z,1023.6
2017-01-23T03:51:58.497Z,1023.62
2017-01-23T03:53:07.145Z,1023.58
2017-01-23T03:54:15.795Z,1023.59
2017-01-23T03:55:24.442Z,1023.55
2017-01-23T03:56:33.087Z,1023.6
2017-01-23T03:57:41.769Z,1023.55
2017-01-23T03:58:50.419Z,1023.57
2017-01-23T03:59:59.070Z,1023.6
2017-01-23T04:01:07.717Z,1023.6
2017-01-23T04:02:16.363Z,1023.64
2017-01-23T04:03:25.012Z,1023.67
2017-01-23T04:04:33.661Z,1023.64
2017-01-23T04:05:42.312Z,1023.63
2017-01-23T04:06:50.952Z,1023.69
2017-01-23T04:07:59.606Z,1023.65
2017-01-23T04:09:08.257Z,1023.7
2017-01-23T04:10:16.910Z,1023.72
2017-01-23T04:11:25.555Z,1023.67
2017-01-23T04:12:34.205Z,1023.7
2017-01-23T04:13:42.855Z,1023.71
2017-01-23T04:14:51.500Z,1023.7
2017-01-23T04:16:00.173Z,1023.68
2017-01-23T04:17:08.828Z,1023.6
2017-01-23T04:18:17.474Z,1023.67
2017-01-23T04:19:26.120Z,1023.63
2017-01-23T04:20:34.774Z,1023.59
2017-01-23T04:21:43.425Z,1023.55
2017-01-23T04:22:52.071Z,1023.58
2017-01-23T04:24:00.718Z,1023.62
2017-01-23T04:25:09.365Z,1023.64
2017-01-23T04:26:18.012Z,1023.67
2017-01-23T04:27:26.655Z,1023.66
2017-01-23T04:28:35.304Z,1023.7
2017-01-23T04:29:43.956Z,1023.71
2017-01-23T04:30:52.599Z,1023.68
2017-01-23T04:32:01.249Z,1023.64
2017-01-23T04:33:09.896Z,1023.64
2017-01-23T04:34:18.549Z,1023.63
2017-01-23T04:35:27.193Z,1023.69
2017-01-23T04:36:35.843Z,1023.71
2017-01-23T04:37:44.499Z,1023.78
2017-01-23T04:38:53.149Z,1023.79
2017-01-23T04:40:01.800Z,1023.78
2017-01-23T04:41:10.449Z,1023.76
2017-01-23T04:42:19.117Z,1023.79
2017-01-23T04:43:27.778Z,1023.81
2017-01-23T04:44:36.426Z,1023.76
2017-01-23T04:45:45.076Z,1023.79
2017-01-23T04:46:53.730Z,1023.8
2017-01-23T04:48:02.380Z,1023.74
2017-01-23T04:49:11.025Z,1023.8
2017-01-23T04:50:19.668Z,1023.81
2017-01-23T04:51:28.310Z,1023.79
2017-01-23T04:52:36.960Z,1023.81
2017-01-23T04:53:45.615Z,1023.84
2017-01-23T04:54:54.263Z,1023.85
2017-01-23T04:56:02.910Z,1023.85
2017-01-23T04:57:11.555Z,1023.89
2017-01-23T04:58:20.201Z,1023.87
2017-01-23T04:59:28.850Z,1023.87
2017-01-23T05:00:37.525Z,1023.88
2017-01-23T05:01:46.171Z,1023.88
2017-01-23T05:02:54.818Z,1023.92
2017-01-23T05:04:03.467Z,1023.88
2017-01-23T05:05:12.118Z,1023.9
2017-01-23T05:06:20.765Z,1023.92
2017-01-23T05:07:29.412Z,1023.92
2017-01-23T05:08:38.063Z,1023.95
2017-01-23T05:09:46.709Z,1023.98
2017-01-23T05:10:55.357Z,1023.96
2017-01-23T05:12:04.001Z,1023.93
2017-01-23T05:13:12.652Z,1023.93
2017-01-23T05:14:21.297Z,1023.96
2017-01-23T05:15:29.945Z,1024
2017-01-23T05:16:38.588Z,1024.03
2017-01-23T05:17:47.231Z,1024.06
2017-01-23T05:18:55.877Z,1024.01
2017-01-23T05:20:04.524Z,1024.04
2017-01-23T05:21:13.175Z,1024
2017-01-23T05:22:21.826Z,1024.04
2017-01-23T05:23:30.474Z,1024.05
2017-01-23T05:24:39.126Z,1024.04
2017-01-23T05:25:47.777Z,1024.13
2017-01-23T05:26:56.423Z,1024.16
2017-01-23T05:28:05.072Z,1024.2
2017-01-23T05:29:13.719Z,1024.16
2017-01-23T05:30:22.364Z,1024.14
2017-01-23T05:31:31.008Z,1024.16
2017-01-23T05:32:39.657Z,1024.16
2017-01-23T05:33:48.302Z,1024.15
2017-01-23T05:34:56.951Z,1024.21
2017-01-23T05:36:05.599Z,1024.2
2017-01-23T05:37:14.258Z,1024.19
2017-01-23T05:38:22.906Z,1024.21
2017-01-23T05:39:31.547Z,1024.22
2017-01-23T05:40:40.198Z,1024.23
2017-01-23T05:41:48.847Z,1024.29
2017-01-23T05:42:57.494Z,1024.32
2017-01-23T05:44:06.146Z,1024.41
2017-01-23T05:45:14.790Z,1024.38
2017-01-23T05:46:23.441Z,1024.4
2017-01-23T05:47:32.088Z,1024.44
2017-01-23T05:48:40.734Z,1024.49
2017-01-23T05:49:49.380Z,1024.51
2017-01-23T05:50:58.025Z,1024.57
2017-01-23T05:52:06.674Z,1024.44
2017-01-23T05:53:15.319Z,1024.46
2017-01-23T05:54:23.972Z,1024.5
2017-01-23T05:55:32.620Z,1024.57
2017-01-23T05:56:41.270Z,1024.54
2017-01-23T05:57:49.920Z,1024.59
2017-01-23T05:58:58.566Z,1024.52
2017-01-23T06:00:07.214Z,1024.57
2017-01-23T06:01:15.857Z,1024.6
2017-01-23T06:02:24.497Z,1024.57
2017-01-23T06:03:33.144Z,1024.61
2017-01-23T06:04:41.793Z,1024.61
2017-01-23T06:05:50.439Z,1024.55
2017-01-23T06:06:59.090Z,1024.54
2017-01-23T06:08:07.743Z,1024.54
2017-01-23T06:09:16.401Z,1024.55
2017-01-23T06:10:25.051Z,1024.56
2017-01-23T06:11:33.699Z,1024.55
2017-01-23T06:12:42.347Z,1024.48
2017-01-23T06:13:50.996Z,1024.53
2017-01-23T06:14:59.643Z,1024.59
2017-01-23T06:16:08.287Z,1024.56
2017-01-23T06:17:16.937Z,1024.5
2017-01-23T06:18:25.589Z,1024.56
2017-01-23T06:19:34.240Z,1024.57
2017-01-23T06:20:42.887Z,1024.58
2017-01-23T06:21:51.539Z,1024.57
2017-01-23T06:23:00.210Z,1024.54
2017-01-23T06:24:08.861Z,1024.62
2017-01-23T06:25:17.510Z,1024.61
2017-01-23T06:26:26.162Z,1024.57
2017-01-23T06:27:34.809Z,1024.56
2017-01-23T06:28:43.456Z,1024.54
2017-01-23T06:29:52.113Z,1024.52
2017-01-23T06:31:00.764Z,1024.55
2017-01-23T06:32:09.410Z,1024.61
2017-01-23T06:33:18.055Z,1024.54
2017-01-23T06:34:26.705Z,1024.58
2017-01-23T06:35:35.364Z,1024.58
2017-01-23T06:36:44.045Z,1024.56
2017-01-23T06:37:52.693Z,1024.59
2017-01-23T06:39:01.721Z,1024.57
2017-01-23T06:40:10.370Z,1024.69
2017-01-23T06:41:19.014Z,1024.6
2017-01-23T06:42:27.662Z,1024.62
2017-01-23T06:43:36.308Z,1024.65
2017-01-23T06:44:44.959Z,1024.62
2017-01-23T06:45:53.628Z,1024.66
2017-01-23T06:47:02.276Z,1024.64
2017-01-23T06:48:10.956Z,1024.67
2017-01-23T06:49:19.603Z,1024.7
2017-01-23T06:50:28.251Z,1024.67
2017-01-23T06:51:36.912Z,1024.68
2017-01-23T06:52:45.559Z,1024.74
2017-01-23T06:53:54.209Z,1024.75
2017-01-23T06:55:02.956Z,1024.76
2017-01-23T06:56:11.602Z,1024.77
2017-01-23T06:57:20.263Z,1024.78
2017-01-23T06:58:28.913Z,1024.79
2017-01-23T06:59:37.560Z,1024.76
2017-01-23T07:00:46.217Z,1024.8
2017-01-23T07:01:54.870Z,1024.75
2017-01-23T07:03:03.520Z,1024.75
2017-01-23T07:04:12.165Z,1024.73
2017-01-23T07:05:20.816Z,1024.7
2017-01-23T07:06:29.469Z,1024.75
2017-01-23T07:07:38.117Z,1024.75
2017-01-23T07:08:46.769Z,1024.71
2017-01-23T07:09:55.416Z,1024.77
2017-01-23T07:11:04.063Z,1024.73
2017-01-23T07:12:12.716Z,1024.73
2017-01-23T07:13:21.366Z,1024.72
2017-01-23T07:14:30.025Z,1024.72
2017-01-23T07:15:38.671Z,1024.82
2017-01-23T07:16:47.321Z,1024.8
2017-01-23T07:17:55.972Z,1024.8
2017-01-23T07:19:04.620Z,1024.87
2017-01-23T07:20:13.267Z,1024.8
2017-01-23T07:21:21.913Z,1024.87
2017-01-23T07:22:30.565Z,1024.86
2017-01-23T07:23:39.213Z,1024.83
2017-01-23T07:24:47.862Z,1024.81
2017-01-23T07:25:56.506Z,1024.73
2017-01-23T07:27:05.157Z,1024.78
2017-01-23T07:28:13.811Z,1024.75
2017-01-23T07:29:22.462Z,1024.78
2017-01-23T07:30:31.113Z,1024.71
2017-01-23T07:31:39.762Z,1024.73
2017-01-23T07:32:48.406Z,1024.8
2017-01-23T07:33:57.080Z,1024.77
2017-01-23T07:35:05.752Z,1024.72
2017-01-23T07:36:14.401Z,1024.69
2017-01-23T07:37:23.051Z,1024.76
2017-01-23T07:38:31.694Z,1024.67
2017-01-23T07:39:40.351Z,1024.67
2017-01-23T07:40:49.029Z,1024.69
2017-01-23T07:41:57.677Z,1024.74
2017-01-23T07:43:06.747Z,1024.7
2017-01-23T07:44:15.399Z,1024.66
2017-01-23T07:45:24.046Z,1024.74
2017-01-23T07:46:32.699Z,1024.76
2017-01-23T07:47:41.352Z,1024.73
2017-01-23T07:48:50.005Z,1024.7
2017-01-23T07:49:58.652Z,1024.67
2017-01-23T07:51:07.309Z,1024.69
2017-01-23T07:52:15.974Z,1024.71
2017-01-23T07:53:24.625Z,1024.74
2017-01-23T07:54:33.276Z,1024.72
2017-01-23T07:55:41.928Z,1024.77
2017-01-23T07:56:50.582Z,1024.84
2017-01-23T07:57:59.233Z,1024.7
2017-01-23T07:59:07.881Z,1024.76
2017-01-23T08:00:16.531Z,1024.73
2017-01-23T08:01:25.177Z,1024.72
2017-01-23T08:02:33.825Z,1024.7
2017-01-23T08:03:42.478Z,1024.71
2017-01-23T08:04:51.140Z,1024.75
2017-01-23T08:05:59.793Z,1024.79
2017-01-23T08:07:08.447Z,1024.81
2017-01-23T08:08:17.089Z,1024.77
2017-01-23T08:09:25.739Z,1024.78
2017-01-23T08:10:34.394Z,1024.79
2017-01-23T08:11:43.092Z,1024.84
2017-01-23T08:12:51.740Z,1024.82
2017-01-23T08:14:00.392Z,1024.86
2017-01-23T08:15:09.042Z,1024.95
2017-01-23T08:16:17.692Z,1024.87
2017-01-23T08:17:26.338Z,1024.86
2017-01-23T08:18:34.987Z,1024.87
2017-01-23T08:19:43.673Z,1024.85
2017-01-23T08:20:52.336Z,1024.92
2017-01-23T08:22:00.983Z,1024.95
2017-01-23T08:23:09.635Z,1024.99
2017-01-23T08:24:18.284Z,1024.94
2017-01-23T08:25:26.934Z,1024.93
2017-01-23T08:26:35.583Z,1024.95
2017-01-23T08:27:44.229Z,1024.96
2017-01-23T08:28:52.876Z,1024.89
2017-01-23T08:30:01.523Z,1024.86
2017-01-23T08:31:10.179Z,1024.84
2017-01-23T08:32:18.833Z,1024.84
2017-01-23T08:33:27.480Z,1024.86
2017-01-23T08:34:36.126Z,1024.88
2017-01-23T08:35:44.773Z,1024.91
2017-01-23T08:36:53.431Z,1024.85
2017-01-23T08:38:02.079Z,1024.95
2017-01-23T08:39:10.734Z,1024.98
2017-01-23T08:40:19.385Z,1024.99
2017-01-23T08:41:28.031Z,1025.07
2017-01-23T08:42:36.680Z,1025.08
2017-01-23T08:43:45.328Z,1025.04
2017-01-23T08:44:53.975Z,1025.07
2017-01-23T08:46:02.627Z,1025.09
2017-01-23T08:47:11.283Z,1025.06
2017-01-23T08:48:19.937Z,1025.06
2017-01-23T08:49:28.971Z,1025.01
2017-01-23T08:50:37.626Z,1025.01
2017-01-23T08:51:46.279Z,1025.08
2017-01-23T08:52:54.931Z,1025.05
2017-01-23T08:54:03.578Z,1025.08
2017-01-23T08:55:12.229Z,1025.13
2017-01-23T08:56:20.875Z,1025.14
2017-01-23T08:57:29.525Z,1025.17
2017-01-23T08:58:38.168Z,1025.19
2017-01-23T08:59:46.816Z,1025.14
2017-01-23T09:00:55.470Z,1025.16
2017-01-23T09:02:04.121Z,1025.23
2017-01-23T09:03:12.767Z,1025.16
2017-01-23T09:04:21.413Z,1025.18
2017-01-23T09:05:30.061Z,1025.18
2017-01-23T09:06:38.713Z,1025.2
2017-01-23T09:07:47.360Z,1025.16
2017-01-23T09:08:56.013Z,1025.22
2017-01-23T09:10:04.666Z,1025.18
2017-01-23T09:11:13.317Z,1025.17
2017-01-23T09:12:21.961Z,1025.2
2017-01-23T09:13:30.608Z,1025.19
2017-01-23T09:14:39.259Z,1025.2
2017-01-23T09:15:47.911Z,1025.24
2017-01-23T09:16:56.560Z,1025.24
2017-01-23T09:18:05.211Z,1025.26
2017-01-23T09:19:13.861Z,1025.26
2017-01-23T09:20:22.515Z,1025.25
2017-01-23T09:21:31.164Z,1025.23
2017-01-23T09:22:39.812Z,1025.25
2017-01-23T09:23:48.463Z,1025.27
2017-01-23T09:24:57.119Z,1025.25
2017-01-23T09:26:05.777Z,1025.25
2017-01-23T09:27:14.425Z,1025.31
2017-01-23T09:28:23.075Z,1025.3
2017-01-23T09:29:31.725Z,1025.28
2017-01-23T09:30:40.374Z,1025.3
2017-01-23T09:31:49.046Z,1025.26
2017-01-23T09:32:57.698Z,1025.26
2017-01-23T09:34:06.353Z,1025.25
2017-01-23T09:35:15.001Z,1025.2
2017-01-23T09:36:23.653Z,1025.21
2017-01-23T09:37:32.309Z,1025.24
2017-01-23T09:38:40.969Z,1025.29
2017-01-23T09:39:49.620Z,1025.29
2017-01-23T09:40:58.275Z,1025.3
2017-01-23T09:42:06.931Z,1025.35
2017-01-23T09:43:15.588Z,1025.36
2017-01-23T09:44:24.271Z,1025.33
2017-01-23T09:45:32.918Z,1025.37
2017-01-23T09:46:41.570Z,1025.39
2017-01-23T09:47:50.223Z,1025.44
2017-01-23T09:48:58.869Z,1025.38
2017-01-23T09:50:07.521Z,1025.38
2017-01-23T09:51:16.170Z,1025.41
2017-01-23T09:52:24.828Z,1025.43
2017-01-23T09:53:33.480Z,1025.44
2017-01-23T09:54:42.138Z,1025.39
2017-01-23T09:55:50.788Z,1025.37
2017-01-23T09:56:59.448Z,1025.38
2017-01-23T09:58:08.100Z,1025.4
2017-01-23T09:59:16.757Z,1025.41
2017-01-23T10:00:25.406Z,1025.4
2017-01-23T10:01:34.057Z,1025.39
2017-01-23T10:02:42.710Z,1025.4
2017-01-23T10:03:51.364Z,1025.36
2017-01-23T10:05:00.017Z,1025.38
2017-01-23T10:06:08.672Z,1025.41
2017-01-23T10:07:17.322Z,1025.41
2017-01-23T10:08:25.973Z,1025.39
2017-01-23T10:09:34.634Z,1025.4
2017-01-23T10:10:43.290Z,1025.45
2017-01-23T10:11:51.939Z,1025.4
2017-01-23T10:13:00.588Z,1025.42
2017-01-23T10:14:09.274Z,1025.39
2017-01-23T10:15:17.933Z,1025.45
2017-01-23T10:16:26.584Z,1025.41
2017-01-23T10:17:35.245Z,1025.39
2017-01-23T10:18:43.893Z,1025.41
2017-01-23T10:19:52.538Z,1025.41
2017-01-23T10:21:01.193Z,1025.43
2017-01-23T10:22:09.843Z,1025.41
2017-01-23T10:23:18.497Z,1025.46
2017-01-23T10:24:27.150Z,1025.48
2017-01-23T10:25:35.801Z,1025.51
2017-01-23T10:26:44.459Z,1025.45
2017-01-23T10:27:53.107Z,1025.41
2017-01-23T10:29:01.764Z,1025.45
2017-01-23T10:30:10.418Z,1025.41
2017-01-23T10:31:19.094Z,1025.38
2017-01-23T10:32:27.747Z,1025.4
2017-01-23T10:33:36.397Z,1025.35
2017-01-23T10:34:45.049Z,1025.38
2017-01-23T10:35:53.699Z,1025.35
2017-01-23T10:37:02.349Z,1025.4
2017-01-23T10:38:11.002Z,1025.36
2017-01-23T10:39:19.656Z,1025.45
2017-01-23T10:40:28.320Z,1025.45
2017-01-23T10:41:36.982Z,1025.44
2017-01-23T10:42:45.633Z,1025.42
2017-01-23T10:43:54.286Z,1025.39
2017-01-23T10:45:02.940Z,1025.39
2017-01-23T10:46:11.594Z,1025.42
2017-01-23T10:47:20.276Z,1025.45
2017-01-23T10:48:28.927Z,1025.36
2017-01-23T10:49:37.579Z,1025.4
2017-01-23T10:50:46.232Z,1025.42
2017-01-23T10:51:54.882Z,1025.41
2017-01-23T10:53:03.529Z,1025.46
2017-01-23T10:54:12.177Z,1025.44
2017-01-23T10:55:20.831Z,1025.44
2017-01-23T10:56:29.486Z,1025.44
2017-01-23T10:57:38.137Z,1025.43
2017-01-23T10:58:46.790Z,1025.4
2017-01-23T10:59:55.443Z,1025.35
2017-01-23T11:01:04.091Z,1025.37
2017-01-23T11:02:12.742Z,1025.4
2017-01-23T11:03:21.419Z,1025.41
2017-01-23T11:04:30.070Z,1025.44
2017-01-23T11:05:38.724Z,1025.43
2017-01-23T11:06:47.372Z,1025.42
2017-01-23T11:07:56.022Z,1025.43
2017-01-23T11:09:04.672Z,1025.41
2017-01-23T11:10:13.325Z,1025.42
2017-01-23T11:11:21.977Z,1025.41
2017-01-23T11:12:30.632Z,1025.41
2017-01-23T11:13:39.290Z,1025.44
2017-01-23T11:14:47.939Z,1025.44
2017-01-23T11:15:56.592Z,1025.45
2017-01-23T11:17:05.257Z,1025.42
2017-01-23T11:18:13.908Z,1025.44
2017-01-23T11:19:22.556Z,1025.4
2017-01-23T11:20:31.213Z,1025.43
2017-01-23T11:21:39.857Z,1025.41
2017-01-23T11:22:48.512Z,1025.38
2017-01-23T11:23:57.161Z,1025.38
2017-01-23T11:25:05.812Z,1025.38
2017-01-23T11:26:14.466Z,1025.36
2017-01-23T11:27:23.146Z,1025.33
2017-01-23T11:28:32.188Z,1025.41
2017-01-23T11:29:40.834Z,1025.31
2017-01-23T11:30:49.484Z,1025.35
2017-01-23T11:31:58.133Z,1025.37
2017-01-23T11:33:06.797Z,1025.33
2017-01-23T11:34:15.448Z,1025.32
2017-01-23T11:35:24.104Z,1025.3
2017-01-23T11:36:32.763Z,1025.33
2017-01-23T11:37:41.414Z,1025.35
2017-01-23T11:38:50.072Z,1025.35
2017-01-23T11:39:58.725Z,1025.31
2017-01-23T11:41:07.376Z,1025.29
2017-01-23T11:42:16.029Z,1025.31
2017-01-23T11:43:24.682Z,1025.34
2017-01-23T11:44:33.337Z,1025.33
2017-01-23T11:45:41.989Z,1025.34
2017-01-23T11:46:50.640Z,1025.24
2017-01-23T11:47:59.296Z,1025.24
2017-01-23T11:49:07.948Z,1025.27
2017-01-23T11:50:16.595Z,1025.26
2017-01-23T11:51:25.242Z,1025.23
2017-01-23T11:52:33.899Z,1025.27
2017-01-23T11:53:42.556Z,1025.29
2017-01-23T11:54:51.238Z,1025.3
2017-01-23T11:55:59.899Z,1025.27
2017-01-23T11:57:08.559Z,1025.32
2017-01-23T11:58:17.206Z,1025.31
2017-01-23T11:59:25.857Z,1025.23
2017-01-23T12:00:34.512Z,1025.27
2017-01-23T12:01:43.161Z,1025.27
2017-01-23T12:02:51.814Z,1025.25
2017-01-23T12:04:00.465Z,1025.25
2017-01-23T12:05:09.116Z,1025.19
2017-01-23T12:06:17.780Z,1025.2
2017-01-23T12:07:26.427Z,1025.23
2017-01-23T12:08:35.084Z,1025.25
2017-01-23T12:09:43.747Z,1025.22
2017-01-23T12:10:52.392Z,1025.15
2017-01-23T12:12:01.050Z,1025.2
2017-01-23T12:13:09.699Z,1025.23
2017-01-23T12:14:18.344Z,1025.19
2017-01-23T12:15:26.999Z,1025.14
2017-01-23T12:16:35.654Z,1025.16
2017-01-23T12:17:44.301Z,1025.17
2017-01-23T12:18:52.953Z,1025.12
2017-01-23T12:20:01.608Z,1025.18
2017-01-23T12:21:10.262Z,1025.2
2017-01-23T12:22:18.913Z,1025.12
2017-01-23T12:23:27.562Z,1025.15
2017-01-23T12:24:36.210Z,1025.13
2017-01-23T12:25:44.864Z,1025.11
2017-01-23T12:26:53.519Z,1025.12
2017-01-23T12:28:02.211Z,1025.07
2017-01-23T12:29:10.861Z,1025.09
2017-01-23T12:30:19.523Z,1025.03
2017-01-23T12:31:28.181Z,1025.08
2017-01-23T12:32:36.832Z,1025.06
2017-01-23T12:33:45.481Z,1025.08
2017-01-23T12:34:54.157Z,1025.03
2017-01-23T12:36:02.810Z,1025.03
2017-01-23T12:37:11.469Z,1025.01
2017-01-23T12:38:20.124Z,1025
2017-01-23T12:39:28.779Z,1025.01
2017-01-23T12:40:37.428Z,1024.97
2017-01-23T12:41:46.083Z,1024.98
2017-01-23T12:42:54.735Z,1024.98
2017-01-23T12:44:03.384Z,1024.96
2017-01-23T12:45:12.039Z,1024.94
2017-01-23T12:46:20.686Z,1024.93
2017-01-23T12:47:29.335Z,1024.89
2017-01-23T12:48:37.985Z,1024.93
2017-01-23T12:49:46.634Z,1024.95
2017-01-23T12:50:55.289Z,1024.89
2017-01-23T12:52:03.934Z,1024.88
2017-01-23T12:53:12.583Z,1024.84
2017-01-23T12:54:21.240Z,1024.87
2017-01-23T12:55:29.896Z,1024.81
2017-01-23T12:56:38.551Z,1024.82
2017-01-23T12:57:47.204Z,1024.85
2017-01-23T12:58:56.244Z,1024.83
2017-01-23T13:00:04.911Z,1024.83
2017-01-23T13:01:13.567Z,1024.79
2017-01-23T13:02:22.222Z,1024.78
2017-01-23T13:03:30.872Z,1024.79
2017-01-23T13:04:39.520Z,1024.81
2017-01-23T13:05:48.172Z,1024.75
2017-01-23T13:06:56.829Z,1024.79
2017-01-23T13:08:05.481Z,1024.8
2017-01-23T13:09:14.146Z,1024.75
2017-01-23T13:10:22.803Z,1024.73
2017-01-23T13:11:31.460Z,1024.72
2017-01-23T13:12:40.113Z,1024.75
2017-01-23T13:13:48.764Z,1024.72
2017-01-23T13:14:57.418Z,1024.66
2017-01-23T13:16:06.073Z,1024.63
2017-01-23T13:17:14.723Z,1024.66
2017-01-23T13:18:23.379Z,1024.66
2017-01-23T13:19:32.033Z,1024.64
2017-01-23T13:20:40.684Z,1024.66
2017-01-23T13:21:49.370Z,1024.64
2017-01-23T13:22:58.025Z,1024.63
2017-01-23T13:24:06.680Z,1024.64
2017-01-23T13:25:15.334Z,1024.59
2017-01-23T13:26:23.982Z,1024.63
2017-01-23T13:27:32.633Z,1024.59
2017-01-23T13:28:41.293Z,1024.64
2017-01-23T13:29:49.942Z,1024.6
2017-01-23T13:30:58.598Z,1024.59
2017-01-23T13:32:07.274Z,1024.57
2017-01-23T13:33:15.924Z,1024.54
2017-01-23T13:34:24.583Z,1024.6
2017-01-23T13:35:33.240Z,1024.6
2017-01-23T13:36:41.899Z,1024.6
2017-01-23T13:37:50.580Z,1024.56
2017-01-23T13:38:59.232Z,1024.56
2017-01-23T13:40:07.880Z,1024.49
2017-01-23T13:41:16.544Z,1024.49
2017-01-23T13:42:25.195Z,1024.57
2017-01-23T13:43:34.231Z,1024.51
2017-01-23T13:44:42.900Z,1024.49
2017-01-23T13:45:51.552Z,1024.56
2017-01-23T13:47:00.208Z,1024.53
2017-01-23T13:48:08.857Z,1024.53
2017-01-23T13:49:17.504Z,1024.55
2017-01-23T13:50:26.159Z,1024.55
2017-01-23T13:51:34.811Z,1024.55
2017-01-23T13:52:43.463Z,1024.54
2017-01-23T13:53:52.116Z,1024.51